Nova Rosalandia, Brazil
Current Conditions -  °F | °C
As of 5:00 PM on Monday 20 Oct 2014 (Local Time) from SBPJ Reporting Station
Thunderstorm Thunderstorm  
Wind Chill: 91°   Ceiling: Unl
Heat Index: 95°   Visibility: 6mi
Dew Point: 68°   Wind: 12mph
Humidity: 46%   Direction: 260°W
Pressure: 29.8"   Gusts: NA
Location:  10.57°S, 48.91°W
Report Text: SBPJ 202000Z 26010KT 9999 TS FEW030 FEW035CB 33/20 Q1009
Loading
Personal Weather Stations






























Interactive Weather Map
Tropical Storm Tracking
New forecast layout! Learn more

10-Day Weather Forecast

Advertisements
Track Severe Weather on mobile